sensor_id;sensor_type;location;lat;lon;timestamp;temperature;humidity
51725;DHT22;37801;53.224;6.552;2023-02-15T00:01:31;3.60;99.90
51725;DHT22;37801;53.224;6.552;2023-02-15T00:03:57;3.60;99.90
51725;DHT22;37801;53.224;6.552;2023-02-15T00:06:23;3.60;99.90
51725;DHT22;37801;53.224;6.552;2023-02-15T00:08:48;3.60;99.90
51725;DHT22;37801;53.224;6.552;2023-02-15T00:11:17;3.50;99.90
51725;DHT22;37801;53.224;6.552;2023-02-15T00:16:37;3.50;99.90
51725;DHT22;37801;53.224;6.552;2023-02-15T00:19:03;3.50;99.90
51725;DHT22;37801;53.224;6.552;2023-02-15T00:21:31;3.50;99.90
51725;DHT22;37801;53.224;6.552;2023-02-15T00:23:59;3.50;99.90
51725;DHT22;37801;53.224;6.552;2023-02-15T00:26:25;3.50;99.90
51725;DHT22;37801;53.224;6.552;2023-02-15T00:28:55;3.50;99.90
51725;DHT22;37801;53.224;6.552;2023-02-15T00:31:21;3.50;99.90
51725;DHT22;37801;53.224;6.552;2023-02-15T00:33:47;3.50;99.90
51725;DHT22;37801;53.224;6.552;2023-02-15T00:36:13;3.50;99.90
51725;DHT22;37801;53.224;6.552;2023-02-15T00:38:39;3.50;99.10
51725;DHT22;37801;53.224;6.552;2023-02-15T00:41:07;3.50;97.80
51725;DHT22;37801;53.224;6.552;2023-02-15T00:43:34;3.40;99.90
51725;DHT22;37801;53.224;6.552;2023-02-15T00:46:00;3.50;99.90
51725;DHT22;37801;53.224;6.552;2023-02-15T00:48:27;3.40;99.90
51725;DHT22;37801;53.224;6.552;2023-02-15T00:50:55;3.40;99.90
51725;DHT22;37801;53.224;6.552;2023-02-15T00:53:21;3.40;98.00
51725;DHT22;37801;53.224;6.552;2023-02-15T00:55:47;3.50;98.80
51725;DHT22;37801;53.224;6.552;2023-02-15T00:58:13;3.40;97.40
51725;DHT22;37801;53.224;6.552;2023-02-15T01:00:41;3.40;92.60
51725;DHT22;37801;53.224;6.552;2023-02-15T01:03:07;3.30;92.50
51725;DHT22;37801;53.224;6.552;2023-02-15T01:05:33;3.40;97.10
51725;DHT22;37801;53.224;6.552;2023-02-15T01:07:59;3.40;98.90
51725;DHT22;37801;53.224;6.552;2023-02-15T01:10:26;3.40;98.10
51725;DHT22;37801;53.224;6.552;2023-02-15T01:12:53;3.30;95.70
51725;DHT22;37801;53.224;6.552;2023-02-15T01:15:19;3.30;96.60
51725;DHT22;37801;53.224;6.552;2023-02-15T01:17:45;3.30;99.90
51725;DHT22;37801;53.224;6.552;2023-02-15T01:20:17;3.40;97.90
51725;DHT22;37801;53.224;6.552;2023-02-15T01:22:43;3.30;95.30
51725;DHT22;37801;53.224;6.552;2023-02-15T01:25:09;3.30;92.00
51725;DHT22;37801;53.224;6.552;2023-02-15T01:27:35;3.20;91.90
51725;DHT22;37801;53.224;6.552;2023-02-15T01:30:00;3.30;85.40
51725;DHT22;37801;53.224;6.552;2023-02-15T01:32:26;3.20;77.90
51725;DHT22;37801;53.224;6.552;2023-02-15T01:34:53;3.20;78.00
51725;DHT22;37801;53.224;6.552;2023-02-15T01:37:18;3.20;88.10
51725;DHT22;37801;53.224;6.552;2023-02-15T01:39:44;3.20;82.90
51725;DHT22;37801;53.224;6.552;2023-02-15T01:42:13;3.20;77.80
51725;DHT22;37801;53.224;6.552;2023-02-15T01:47:21;3.20;90.10
51725;DHT22;37801;53.224;6.552;2023-02-15T01:49:48;3.20;86.90
51725;DHT22;37801;53.224;6.552;2023-02-15T01:52:17;3.20;80.40
51725;DHT22;37801;53.224;6.552;2023-02-15T01:54:45;3.20;77.10
51725;DHT22;37801;53.224;6.552;2023-02-15T01:57:16;3.10;73.30
51725;DHT22;37801;53.224;6.552;2023-02-15T01:59:47;3.20;64.20
51725;DHT22;37801;53.224;6.552;2023-02-15T02:02:16;3.20;72.30
51725;DHT22;37801;53.224;6.552;2023-02-15T02:04:48;3.10;69.00
51725;DHT22;37801;53.224;6.552;2023-02-15T02:07:17;3.20;79.50
51725;DHT22;37801;53.224;6.552;2023-02-15T02:09:44;3.10;87.50
51725;DHT22;37801;53.224;6.552;2023-02-15T02:12:10;3.20;91.10
51725;DHT22;37801;53.224;6.552;2023-02-15T02:14:37;3.10;78.70
51725;DHT22;37801;53.224;6.552;2023-02-15T02:22:52;3.10;66.80
51725;DHT22;37801;53.224;6.552;2023-02-15T02:33:27;3.00;60.00
51725;DHT22;37801;53.224;6.552;2023-02-15T02:36:48;3.10;73.60
51725;DHT22;37801;53.224;6.552;2023-02-15T02:39:33;3.00;81.50
51725;DHT22;37801;53.224;6.552;2023-02-15T02:42:34;3.00;74.80
51725;DHT22;37801;53.224;6.552;2023-02-15T02:47:47;3.00;63.10
51725;DHT22;37801;53.224;6.552;2023-02-15T02:50:22;3.00;69.80
51725;DHT22;37801;53.224;6.552;2023-02-15T02:52:50;3.00;76.40
51725;DHT22;37801;53.224;6.552;2023-02-15T02:55:31;3.00;73.30
51725;DHT22;37801;53.224;6.552;2023-02-15T03:00:57;3.00;80.90
51725;DHT22;37801;53.224;6.552;2023-02-15T03:06:00;3.00;71.40
51725;DHT22;37801;53.224;6.552;2023-02-15T03:08:41;3.00;73.70
51725;DHT22;37801;53.224;6.552;2023-02-15T03:11:07;3.00;77.90
51725;DHT22;37801;53.224;6.552;2023-02-15T03:13:34;2.90;76.80
51725;DHT22;37801;53.224;6.552;2023-02-15T03:16:01;3.00;66.40
51725;DHT22;37801;53.224;6.552;2023-02-15T03:18:49;3.00;65.90
51725;DHT22;37801;53.224;6.552;2023-02-15T03:22:00;2.90;64.20
51725;DHT22;37801;53.224;6.552;2023-02-15T03:24:42;3.00;68.20
51725;DHT22;37801;53.224;6.552;2023-02-15T03:27:13;2.90;67.10
51725;DHT22;37801;53.224;6.552;2023-02-15T03:29:45;2.90;58.20
51725;DHT22;37801;53.224;6.552;2023-02-15T03:32:12;2.90;54.40
51725;DHT22;37801;53.224;6.552;2023-02-15T03:34:40;2.90;62.90
51725;DHT22;37801;53.224;6.552;2023-02-15T03:37:17;2.90;70.70
51725;DHT22;37801;53.224;6.552;2023-02-15T03:40:26;2.90;67.90
51725;DHT22;37801;53.224;6.552;2023-02-15T03:43:29;2.90;59.50
51725;DHT22;37801;53.224;6.552;2023-02-15T03:46:02;2.90;49.80
51725;DHT22;37801;53.224;6.552;2023-02-15T03:48:40;2.90;42.30
51725;DHT22;37801;53.224;6.552;2023-02-15T03:51:22;2.90;43.20
51725;DHT22;37801;53.224;6.552;2023-02-15T03:54:13;2.80;55.50
51725;DHT22;37801;53.224;6.552;2023-02-15T03:57:01;2.80;55.50
51725;DHT22;37801;53.224;6.552;2023-02-15T03:59:45;2.80;56.40
51725;DHT22;37801;53.224;6.552;2023-02-15T04:02:36;2.80;53.30
51725;DHT22;37801;53.224;6.552;2023-02-15T04:05:03;2.80;57.50
51725;DHT22;37801;53.224;6.552;2023-02-15T04:07:28;2.80;56.10
51725;DHT22;37801;53.224;6.552;2023-02-15T04:09:54;2.80;59.10
51725;DHT22;37801;53.224;6.552;2023-02-15T04:12:38;2.80;65.10
51725;DHT22;37801;53.224;6.552;2023-02-15T04:15:04;2.80;62.50
51725;DHT22;37801;53.224;6.552;2023-02-15T04:17:49;2.80;59.70
51725;DHT22;37801;53.224;6.552;2023-02-15T04:20:15;2.80;54.20
51725;DHT22;37801;53.224;6.552;2023-02-15T04:22:59;2.80;49.50
51725;DHT22;37801;53.224;6.552;2023-02-15T04:25:43;2.80;46.60
51725;DHT22;37801;53.224;6.552;2023-02-15T04:28:09;2.70;43.90
51725;DHT22;37801;53.224;6.552;2023-02-15T04:30:35;2.70;46.30
51725;DHT22;37801;53.224;6.552;2023-02-15T04:33:01;2.70;45.50
51725;DHT22;37801;53.224;6.552;2023-02-15T04:35:26;2.80;51.60
51725;DHT22;37801;53.224;6.552;2023-02-15T04:37:52;2.70;49.50
51725;DHT22;37801;53.224;6.552;2023-02-15T04:40:18;2.80;53.80
51725;DHT22;37801;53.224;6.552;2023-02-15T04:42:44;2.80;62.60
51725;DHT22;37801;53.224;6.552;2023-02-15T04:45:09;2.80;60.50
51725;DHT22;37801;53.224;6.552;2023-02-15T04:47:35;2.70;60.70
51725;DHT22;37801;53.224;6.552;2023-02-15T04:50:01;2.70;65.90
51725;DHT22;37801;53.224;6.552;2023-02-15T04:52:27;2.70;62.30
51725;DHT22;37801;53.224;6.552;2023-02-15T04:54:52;2.70;50.40
51725;DHT22;37801;53.224;6.552;2023-02-15T04:57:18;2.70;46.00
51725;DHT22;37801;53.224;6.552;2023-02-15T04:59:44;2.70;49.20
51725;DHT22;37801;53.224;6.552;2023-02-15T05:02:09;2.70;62.10
51725;DHT22;37801;53.224;6.552;2023-02-15T05:04:35;2.70;57.50
51725;DHT22;37801;53.224;6.552;2023-02-15T05:07:01;2.70;49.80
51725;DHT22;37801;53.224;6.552;2023-02-15T05:09:27;2.70;48.50
51725;DHT22;37801;53.224;6.552;2023-02-15T05:11:52;2.70;49.60
51725;DHT22;37801;53.224;6.552;2023-02-15T05:14:18;2.70;48.10
51725;DHT22;37801;53.224;6.552;2023-02-15T05:16:44;2.70;48.60
51725;DHT22;37801;53.224;6.552;2023-02-15T05:19:10;2.70;55.40
51725;DHT22;37801;53.224;6.552;2023-02-15T05:21:35;2.70;51.40
51725;DHT22;37801;53.224;6.552;2023-02-15T05:24:01;2.70;50.50
51725;DHT22;37801;53.224;6.552;2023-02-15T05:26:47;2.70;49.30
51725;DHT22;37801;53.224;6.552;2023-02-15T05:29:31;2.60;46.80
51725;DHT22;37801;53.224;6.552;2023-02-15T05:31:56;2.70;51.70
51725;DHT22;37801;53.224;6.552;2023-02-15T05:34:22;2.70;46.00
51725;DHT22;37801;53.224;6.552;2023-02-15T05:36:48;2.70;55.60
51725;DHT22;37801;53.224;6.552;2023-02-15T05:39:14;2.70;58.20
51725;DHT22;37801;53.224;6.552;2023-02-15T05:41:39;2.70;62.30
51725;DHT22;37801;53.224;6.552;2023-02-15T05:44:05;2.70;65.00
51725;DHT22;37801;53.224;6.552;2023-02-15T05:46:31;2.70;61.80
51725;DHT22;37801;53.224;6.552;2023-02-15T05:48:56;2.70;57.80
51725;DHT22;37801;53.224;6.552;2023-02-15T05:51:22;2.70;54.50
51725;DHT22;37801;53.224;6.552;2023-02-15T05:53:48;2.70;57.30
51725;DHT22;37801;53.224;6.552;2023-02-15T05:56:13;2.70;60.20
51725;DHT22;37801;53.224;6.552;2023-02-15T05:58:40;2.60;49.40
51725;DHT22;37801;53.224;6.552;2023-02-15T06:01:18;2.70;47.40
51725;DHT22;37801;53.224;6.552;2023-02-15T06:03:45;2.70;55.60
51725;DHT22;37801;53.224;6.552;2023-02-15T06:06:10;2.60;52.90
51725;DHT22;37801;53.224;6.552;2023-02-15T06:08:37;2.70;61.80
51725;DHT22;37801;53.224;6.552;2023-02-15T06:11:04;2.70;55.90
51725;DHT22;37801;53.224;6.552;2023-02-15T06:13:31;2.70;59.30
51725;DHT22;37801;53.224;6.552;2023-02-15T06:15:57;2.70;64.90
51725;DHT22;37801;53.224;6.552;2023-02-15T06:18:23;2.60;60.30
51725;DHT22;37801;53.224;6.552;2023-02-15T06:20:48;2.70;61.20
51725;DHT22;37801;53.224;6.552;2023-02-15T06:23:14;2.70;63.00
51725;DHT22;37801;53.224;6.552;2023-02-15T06:25:41;2.70;65.60
51725;DHT22;37801;53.224;6.552;2023-02-15T06:28:06;2.70;62.20
51725;DHT22;37801;53.224;6.552;2023-02-15T06:30:32;2.70;67.00
51725;DHT22;37801;53.224;6.552;2023-02-15T06:32:58;2.70;67.20
51725;DHT22;37801;53.224;6.552;2023-02-15T06:35:24;2.70;74.80
51725;DHT22;37801;53.224;6.552;2023-02-15T06:37:50;2.70;74.40
51725;DHT22;37801;53.224;6.552;2023-02-15T06:40:16;2.80;73.90
51725;DHT22;37801;53.224;6.552;2023-02-15T06:42:42;2.70;75.60
51725;DHT22;37801;53.224;6.552;2023-02-15T06:45:09;2.70;80.50
51725;DHT22;37801;53.224;6.552;2023-02-15T06:47:35;2.80;82.10
51725;DHT22;37801;53.224;6.552;2023-02-15T06:50:01;2.80;85.00
51725;DHT22;37801;53.224;6.552;2023-02-15T06:52:27;2.80;86.50
51725;DHT22;37801;53.224;6.552;2023-02-15T06:54:53;2.80;86.90
51725;DHT22;37801;53.224;6.552;2023-02-15T06:57:19;2.80;91.90
51725;DHT22;37801;53.224;6.552;2023-02-15T06:59:45;2.80;94.70
51725;DHT22;37801;53.224;6.552;2023-02-15T07:02:12;2.80;99.90
51725;DHT22;37801;53.224;6.552;2023-02-15T07:04:37;2.90;99.90
51725;DHT22;37801;53.224;6.552;2023-02-15T07:07:03;2.90;99.90
51725;DHT22;37801;53.224;6.552;2023-02-15T07:09:29;3.00;99.90
51725;DHT22;37801;53.224;6.552;2023-02-15T07:11:55;3.00;99.90
51725;DHT22;37801;53.224;6.552;2023-02-15T07:14:39;3.00;99.90
51725;DHT22;37801;53.224;6.552;2023-02-15T07:17:06;3.00;99.90
51725;DHT22;37801;53.224;6.552;2023-02-15T07:19:32;3.10;99.90
51725;DHT22;37801;53.224;6.552;2023-02-15T07:21:58;3.20;99.90
51725;DHT22;37801;53.224;6.552;2023-02-15T07:24:24;3.10;99.90
51725;DHT22;37801;53.224;6.552;2023-02-15T07:26:49;3.20;99.90
51725;DHT22;37801;53.224;6.552;2023-02-15T07:29:15;3.20;99.90
51725;DHT22;37801;53.224;6.552;2023-02-15T07:31:41;3.30;99.90
51725;DHT22;37801;53.224;6.552;2023-02-15T07:34:10;3.30;99.90
51725;DHT22;37801;53.224;6.552;2023-02-15T07:36:36;3.40;99.90
51725;DHT22;37801;53.224;6.552;2023-02-15T07:39:02;3.40;99.90
51725;DHT22;37801;53.224;6.552;2023-02-15T07:41:28;3.50;99.90
51725;DHT22;37801;53.224;6.552;2023-02-15T07:43:54;3.50;99.90
51725;DHT22;37801;53.224;6.552;2023-02-15T07:46:20;3.60;99.90
51725;DHT22;37801;53.224;6.552;2023-02-15T07:48:46;3.60;99.90
51725;DHT22;37801;53.224;6.552;2023-02-15T07:51:12;3.60;99.90
51725;DHT22;37801;53.224;6.552;2023-02-15T07:53:40;3.60;99.90
51725;DHT22;37801;53.224;6.552;2023-02-15T07:56:11;3.70;99.90
51725;DHT22;37801;53.224;6.552;2023-02-15T07:58:37;3.80;99.90
51725;DHT22;37801;53.224;6.552;2023-02-15T08:01:33;3.70;99.90
51725;DHT22;37801;53.224;6.552;2023-02-15T08:03:59;3.70;99.90
51725;DHT22;37801;53.224;6.552;2023-02-15T08:06:27;3.70;99.90
51725;DHT22;37801;53.224;6.552;2023-02-15T08:08:53;3.70;99.90
51725;DHT22;37801;53.224;6.552;2023-02-15T08:11:24;3.70;99.90
51725;DHT22;37801;53.224;6.552;2023-02-15T08:16:25;3.70;99.90
51725;DHT22;37801;53.224;6.552;2023-02-15T08:18:52;3.80;99.90
51725;DHT22;37801;53.224;6.552;2023-02-15T08:21:19;3.80;99.90
51725;DHT22;37801;53.224;6.552;2023-02-15T08:23:45;3.80;99.90
51725;DHT22;37801;53.224;6.552;2023-02-15T08:26:12;3.80;99.90
51725;DHT22;37801;53.224;6.552;2023-02-15T08:28:38;3.90;99.90
51725;DHT22;37801;53.224;6.552;2023-02-15T08:31:05;3.90;99.90
51725;DHT22;37801;53.224;6.552;2023-02-15T08:33:31;4.00;99.90
51725;DHT22;37801;53.224;6.552;2023-02-15T08:36:01;4.00;99.90
51725;DHT22;37801;53.224;6.552;2023-02-15T08:38:27;4.00;99.90
51725;DHT22;37801;53.224;6.552;2023-02-15T08:40:53;4.00;99.90
51725;DHT22;37801;53.224;6.552;2023-02-15T08:43:18;4.10;99.90
51725;DHT22;37801;53.224;6.552;2023-02-15T08:45:44;4.10;99.90
51725;DHT22;37801;53.224;6.552;2023-02-15T08:48:10;4.10;99.90
51725;DHT22;37801;53.224;6.552;2023-02-15T08:50:35;4.20;99.90
51725;DHT22;37801;53.224;6.552;2023-02-15T08:53:01;4.20;99.90
51725;DHT22;37801;53.224;6.552;2023-02-15T08:55:27;4.20;99.90
51725;DHT22;37801;53.224;6.552;2023-02-15T08:57:53;4.30;99.90
51725;DHT22;37801;53.224;6.552;2023-02-15T09:00:21;4.30;99.90
51725;DHT22;37801;53.224;6.552;2023-02-15T09:02:50;4.30;99.90
51725;DHT22;37801;53.224;6.552;2023-02-15T09:05:16;4.30;99.90
51725;DHT22;37801;53.224;6.552;2023-02-15T09:07:42;4.40;99.90
51725;DHT22;37801;53.224;6.552;2023-02-15T09:10:07;4.40;99.90
51725;DHT22;37801;53.224;6.552;2023-02-15T09:12:33;4.50;99.90
51725;DHT22;37801;53.224;6.552;2023-02-15T09:14:59;4.50;99.90
51725;DHT22;37801;53.224;6.552;2023-02-15T09:17:25;4.50;99.90
51725;DHT22;37801;53.224;6.552;2023-02-15T09:19:50;4.60;99.90
51725;DHT22;37801;53.224;6.552;2023-02-15T09:22:16;4.60;99.90
51725;DHT22;37801;53.224;6.552;2023-02-15T09:24:42;4.60;99.90
51725;DHT22;37801;53.224;6.552;2023-02-15T09:27:08;4.60;99.90
51725;DHT22;37801;53.224;6.552;2023-02-15T09:29:33;4.70;99.90
51725;DHT22;37801;53.224;6.552;2023-02-15T09:31:59;4.70;99.90
51725;DHT22;37801;53.224;6.552;2023-02-15T09:34:25;4.80;99.90
51725;DHT22;37801;53.224;6.552;2023-02-15T09:36:51;4.70;99.90
51725;DHT22;37801;53.224;6.552;2023-02-15T09:39:20;4.70;99.90
51725;DHT22;37801;53.224;6.552;2023-02-15T09:50:33;4.80;99.90
51725;DHT22;37801;53.224;6.552;2023-02-15T09:55:51;4.90;99.90
51725;DHT22;37801;53.224;6.552;2023-02-15T10:01:17;5.00;99.90
51725;DHT22;37801;53.224;6.552;2023-02-15T10:04:41;5.00;99.90
51725;DHT22;37801;53.224;6.552;2023-02-15T10:10:04;5.10;99.90
51725;DHT22;37801;53.224;6.552;2023-02-15T10:12:48;5.20;99.90
51725;DHT22;37801;53.224;6.552;2023-02-15T10:15:43;5.20;99.90
51725;DHT22;37801;53.224;6.552;2023-02-15T10:26:54;5.30;99.90
51725;DHT22;37801;53.224;6.552;2023-02-15T10:29:37;5.40;99.90
51725;DHT22;37801;53.224;6.552;2023-02-15T10:34:56;5.40;99.90
51725;DHT22;37801;53.224;6.552;2023-02-15T10:40:08;5.50;99.90
51725;DHT22;37801;53.224;6.552;2023-02-15T10:45:39;5.60;99.90
51725;DHT22;37801;53.224;6.552;2023-02-15T10:48:26;5.60;99.90
51725;DHT22;37801;53.224;6.552;2023-02-15T10:50:58;5.70;99.90
51725;DHT22;37801;53.224;6.552;2023-02-15T11:01:52;6.00;99.90
51725;DHT22;37801;53.224;6.552;2023-02-15T11:04:49;6.10;99.90
51725;DHT22;37801;53.224;6.552;2023-02-15T11:07:27;6.10;99.90
51725;DHT22;37801;53.224;6.552;2023-02-15T11:10:11;6.00;99.90
51725;DHT22;37801;53.224;6.552;2023-02-15T11:12:41;6.10;99.90
51725;DHT22;37801;53.224;6.552;2023-02-15T11:15:19;6.20;99.90
51725;DHT22;37801;53.224;6.552;2023-02-15T11:18:44;6.20;99.90
51725;DHT22;37801;53.224;6.552;2023-02-15T11:23:21;6.50;99.90
51725;DHT22;37801;53.224;6.552;2023-02-15T11:26:01;6.50;99.90
51725;DHT22;37801;53.224;6.552;2023-02-15T11:31:18;6.60;99.90
51725;DHT22;37801;53.224;6.552;2023-02-15T11:33:50;6.60;99.90
51725;DHT22;37801;53.224;6.552;2023-02-15T11:36:28;6.70;99.90
51725;DHT22;37801;53.224;6.552;2023-02-15T11:39:12;6.70;99.90
51725;DHT22;37801;53.224;6.552;2023-02-15T11:41:49;6.70;99.90
51725;DHT22;37801;53.224;6.552;2023-02-15T11:44:33;6.80;99.90
51725;DHT22;37801;53.224;6.552;2023-02-15T11:47:01;6.90;99.90
51725;DHT22;37801;53.224;6.552;2023-02-15T11:49:35;6.90;99.90
51725;DHT22;37801;53.224;6.552;2023-02-15T11:52:03;7.00;99.90
51725;DHT22;37801;53.224;6.552;2023-02-15T11:54:35;7.10;99.90
51725;DHT22;37801;53.224;6.552;2023-02-15T12:00:00;7.20;99.90
51725;DHT22;37801;53.224;6.552;2023-02-15T12:02:26;7.20;99.90
51725;DHT22;37801;53.224;6.552;2023-02-15T12:05:01;7.30;99.90
51725;DHT22;37801;53.224;6.552;2023-02-15T12:07:42;7.30;99.90
51725;DHT22;37801;53.224;6.552;2023-02-15T12:12:44;7.40;99.90
51725;DHT22;37801;53.224;6.552;2023-02-15T12:15:11;7.50;99.90
51725;DHT22;37801;53.224;6.552;2023-02-15T12:17:49;7.60;99.90
51725;DHT22;37801;53.224;6.552;2023-02-15T12:22:53;7.70;99.90
51725;DHT22;37801;53.224;6.552;2023-02-15T12:25:27;7.70;99.90
51725;DHT22;37801;53.224;6.552;2023-02-15T12:27:55;7.70;99.90
51725;DHT22;37801;53.224;6.552;2023-02-15T12:30:29;7.70;99.90
51725;DHT22;37801;53.224;6.552;2023-02-15T12:33:03;7.70;99.90
51725;DHT22;37801;53.224;6.552;2023-02-15T12:35:33;7.70;99.90
51725;DHT22;37801;53.224;6.552;2023-02-15T12:38:23;7.80;99.90
51725;DHT22;37801;53.224;6.552;2023-02-15T12:41:04;7.80;99.90
51725;DHT22;37801;53.224;6.552;2023-02-15T12:43:35;7.80;99.90
51725;DHT22;37801;53.224;6.552;2023-02-15T12:46:23;7.80;99.90
51725;DHT22;37801;53.224;6.552;2023-02-15T12:49:18;7.80;99.90
51725;DHT22;37801;53.224;6.552;2023-02-15T12:51:45;7.90;99.90
51725;DHT22;37801;53.224;6.552;2023-02-15T12:54:25;8.00;99.90
51725;DHT22;37801;53.224;6.552;2023-02-15T12:56:53;8.00;99.90
51725;DHT22;37801;53.224;6.552;2023-02-15T12:59:19;8.00;99.90
51725;DHT22;37801;53.224;6.552;2023-02-15T13:01:48;8.00;99.90
51725;DHT22;37801;53.224;6.552;2023-02-15T13:04:27;8.00;99.90
51725;DHT22;37801;53.224;6.552;2023-02-15T13:07:00;8.10;99.90
51725;DHT22;37801;53.224;6.552;2023-02-15T13:12:27;8.20;99.90
51725;DHT22;37801;53.224;6.552;2023-02-15T13:14:56;8.20;99.90
51725;DHT22;37801;53.224;6.552;2023-02-15T13:17:31;8.20;99.90
51725;DHT22;37801;53.224;6.552;2023-02-15T13:20:26;8.20;99.90
51725;DHT22;37801;53.224;6.552;2023-02-15T13:23:01;8.20;99.90
51725;DHT22;37801;53.224;6.552;2023-02-15T13:25:35;8.20;99.90
51725;DHT22;37801;53.224;6.552;2023-02-15T13:28:06;8.10;99.90
51725;DHT22;37801;53.224;6.552;2023-02-15T13:30:40;8.20;99.90
51725;DHT22;37801;53.224;6.552;2023-02-15T13:33:29;8.30;99.90
51725;DHT22;37801;53.224;6.552;2023-02-15T13:35:58;8.40;99.90
51725;DHT22;37801;53.224;6.552;2023-02-15T13:41:06;8.50;99.90
51725;DHT22;37801;53.224;6.552;2023-02-15T13:46:34;8.50;99.90
51725;DHT22;37801;53.224;6.552;2023-02-15T13:55:20;8.60;99.90
51725;DHT22;37801;53.224;6.552;2023-02-15T14:06:33;8.70;98.60
51725;DHT22;37801;53.224;6.552;2023-02-15T14:11:38;8.70;99.90
51725;DHT22;37801;53.224;6.552;2023-02-15T14:20:25;8.60;99.90
51725;DHT22;37801;53.224;6.552;2023-02-15T14:31:12;8.70;99.90
51725;DHT22;37801;53.224;6.552;2023-02-15T14:33:57;8.60;99.90
51725;DHT22;37801;53.224;6.552;2023-02-15T14:36:24;8.50;99.90
51725;DHT22;37801;53.224;6.552;2023-02-15T14:39:07;8.60;99.90
51725;DHT22;37801;53.224;6.552;2023-02-15T14:44:49;8.60;83.10
51725;DHT22;37801;53.224;6.552;2023-02-15T14:47:18;8.70;76.70
51725;DHT22;37801;53.224;6.552;2023-02-15T14:49:45;8.70;64.50
51725;DHT22;37801;53.224;6.552;2023-02-15T14:52:11;8.70;55.30
51725;DHT22;37801;53.224;6.552;2023-02-15T15:01:57;8.70;33.80
51725;DHT22;37801;53.224;6.552;2023-02-15T15:09:34;8.60;56.30
51725;DHT22;37801;53.224;6.552;2023-02-15T15:14:47;8.50;68.10
51725;DHT22;37801;53.224;6.552;2023-02-15T15:41:44;8.30;68.10
51725;DHT22;37801;53.224;6.552;2023-02-15T15:48:43;8.20;99.90
51725;DHT22;37801;53.224;6.552;2023-02-15T15:50:41;8.10;94.10
51725;DHT22;37801;53.224;6.552;2023-02-15T15:53:18;8.10;90.30
51725;DHT22;37801;53.224;6.552;2023-02-15T15:55:47;8.10;92.80
51725;DHT22;37801;53.224;6.552;2023-02-15T15:58:17;8.10;75.00
51725;DHT22;37801;53.224;6.552;2023-02-15T16:00:49;8.10;67.10
51725;DHT22;37801;53.224;6.552;2023-02-15T16:03:26;8.00;91.20
51725;DHT22;37801;53.224;6.552;2023-02-15T16:05:52;8.00;91.50
51725;DHT22;37801;53.224;6.552;2023-02-15T16:08:38;7.90;91.00
51725;DHT22;37801;53.224;6.552;2023-02-15T16:11:20;7.90;91.10
51725;DHT22;37801;53.224;6.552;2023-02-15T16:13:47;7.90;74.80
51725;DHT22;37801;53.224;6.552;2023-02-15T16:16:29;7.90;74.30
51725;DHT22;37801;53.224;6.552;2023-02-15T16:18:56;7.90;77.50
51725;DHT22;37801;53.224;6.552;2023-02-15T16:21:29;7.80;90.00
51725;DHT22;37801;53.224;6.552;2023-02-15T16:27:31;7.80;84.40
51725;DHT22;37801;53.224;6.552;2023-02-15T16:29:46;7.70;89.70
51725;DHT22;37801;53.224;6.552;2023-02-15T16:32:21;7.70;92.80
51725;DHT22;37801;53.224;6.552;2023-02-15T16:35:13;7.70;99.90
51725;DHT22;37801;53.224;6.552;2023-02-15T16:37:39;7.60;99.90
51725;DHT22;37801;53.224;6.552;2023-02-15T16:40:05;7.50;99.90
51725;DHT22;37801;53.224;6.552;2023-02-15T16:42:31;7.40;99.90
51725;DHT22;37801;53.224;6.552;2023-02-15T16:45:12;7.40;99.90
51725;DHT22;37801;53.224;6.552;2023-02-15T16:47:42;7.40;99.90
51725;DHT22;37801;53.224;6.552;2023-02-15T16:50:18;7.30;99.90
51725;DHT22;37801;53.224;6.552;2023-02-15T16:52:45;7.30;99.90
51725;DHT22;37801;53.224;6.552;2023-02-15T16:55:21;7.30;99.90
51725;DHT22;37801;53.224;6.552;2023-02-15T16:57:47;7.20;99.90
51725;DHT22;37801;53.224;6.552;2023-02-15T17:00:24;7.20;99.90
51725;DHT22;37801;53.224;6.552;2023-02-15T17:02:59;7.10;99.90
51725;DHT22;37801;53.224;6.552;2023-02-15T17:05:31;7.10;99.90
51725;DHT22;37801;53.224;6.552;2023-02-15T17:08:17;7.00;99.90
51725;DHT22;37801;53.224;6.552;2023-02-15T17:13:26;7.00;99.90
51725;DHT22;37801;53.224;6.552;2023-02-15T17:18:23;6.90;99.90
51725;DHT22;37801;53.224;6.552;2023-02-15T17:20:51;6.90;99.90
51725;DHT22;37801;53.224;6.552;2023-02-15T17:23:32;6.90;99.90
51725;DHT22;37801;53.224;6.552;2023-02-15T17:26:10;6.90;99.90
51725;DHT22;37801;53.224;6.552;2023-02-15T17:28:37;6.90;99.90
51725;DHT22;37801;53.224;6.552;2023-02-15T17:31:06;6.80;99.90
51725;DHT22;37801;53.224;6.552;2023-02-15T17:36:09;6.80;99.90
51725;DHT22;37801;53.224;6.552;2023-02-15T17:39:26;6.70;99.90
51725;DHT22;37801;53.224;6.552;2023-02-15T17:41:33;6.70;99.90
51725;DHT22;37801;53.224;6.552;2023-02-15T17:44:00;6.70;99.90
51725;DHT22;37801;53.224;6.552;2023-02-15T17:46:29;6.70;99.90
51725;DHT22;37801;53.224;6.552;2023-02-15T17:48:58;6.70;99.90
51725;DHT22;37801;53.224;6.552;2023-02-15T17:51:24;6.80;99.90
51725;DHT22;37801;53.224;6.552;2023-02-15T17:53:50;6.70;99.90
51725;DHT22;37801;53.224;6.552;2023-02-15T17:56:39;6.70;99.90
51725;DHT22;37801;53.224;6.552;2023-02-15T17:59:05;6.70;99.90
51725;DHT22;37801;53.224;6.552;2023-02-15T18:01:36;6.70;99.90
51725;DHT22;37801;53.224;6.552;2023-02-15T18:04:22;6.60;99.90
51725;DHT22;37801;53.224;6.552;2023-02-15T18:07:16;6.60;99.90
51725;DHT22;37801;53.224;6.552;2023-02-15T18:10:02;6.60;99.90
51725;DHT22;37801;53.224;6.552;2023-02-15T18:12:46;6.60;99.90
51725;DHT22;37801;53.224;6.552;2023-02-15T18:15:12;6.60;99.90
51725;DHT22;37801;53.224;6.552;2023-02-15T18:17:43;6.60;99.90
51725;DHT22;37801;53.224;6.552;2023-02-15T18:20:22;6.60;99.90
51725;DHT22;37801;53.224;6.552;2023-02-15T18:22:50;6.50;99.90
51725;DHT22;37801;53.224;6.552;2023-02-15T18:25:18;6.50;99.90
51725;DHT22;37801;53.224;6.552;2023-02-15T18:27:45;6.50;99.90
51725;DHT22;37801;53.224;6.552;2023-02-15T18:30:16;6.50;99.90
51725;DHT22;37801;53.224;6.552;2023-02-15T18:32:43;6.50;99.90
51725;DHT22;37801;53.224;6.552;2023-02-15T18:35:30;6.50;99.90
51725;DHT22;37801;53.224;6.552;2023-02-15T18:37:58;6.50;99.90
51725;DHT22;37801;53.224;6.552;2023-02-15T18:40:26;6.50;99.90
51725;DHT22;37801;53.224;6.552;2023-02-15T18:42:53;6.40;99.90
51725;DHT22;37801;53.224;6.552;2023-02-15T18:45:26;6.40;99.90
51725;DHT22;37801;53.224;6.552;2023-02-15T18:47:56;6.50;99.90
51725;DHT22;37801;53.224;6.552;2023-02-15T18:50:23;6.40;99.90
51725;DHT22;37801;53.224;6.552;2023-02-15T18:52:51;6.50;99.90
51725;DHT22;37801;53.224;6.552;2023-02-15T18:55:25;6.50;99.90
51725;DHT22;37801;53.224;6.552;2023-02-15T18:57:54;6.50;99.90
51725;DHT22;37801;53.224;6.552;2023-02-15T19:02:54;6.50;99.90
51725;DHT22;37801;53.224;6.552;2023-02-15T19:05:21;6.50;99.90
51725;DHT22;37801;53.224;6.552;2023-02-15T19:07:47;6.50;99.90
51725;DHT22;37801;53.224;6.552;2023-02-15T19:10:20;6.50;99.90
51725;DHT22;37801;53.224;6.552;2023-02-15T19:12:47;6.50;99.90
51725;DHT22;37801;53.224;6.552;2023-02-15T19:15:18;6.50;99.90
51725;DHT22;37801;53.224;6.552;2023-02-15T19:17:44;6.50;99.90